Time;durP1;ratioP1;P1;durP2;ratioP2;P2;SDS_P1;SDS_P2;PMS_P1;PMS_P2;Temp;Humidity;BMP_temperature;BMP_pressure;BME280_temperature;BME280_humidity;BME280_pressure;Samples;Min_cycle;Max_cycle;Signal;HPM_P1;HPM_P2
2021/06/16 00:00:49;;;;;;;9.68;3.53;;;;;;;15.44;100.00;101698.72;5249048;28;20016;-83
2021/06/16 00:03:20;;;;;;;7.00;2.75;;;;;;;15.38;100.00;101698.59;5249077;28;20031;-83
2021/06/16 00:05:50;;;;;;;16.90;3.60;;;;;;;15.36;100.00;101697.91;5248790;28;20129;-83
2021/06/16 00:08:21;;;;;;;9.68;3.45;;;;;;;15.34;100.00;101690.00;5248476;28;20020;-83
2021/06/16 00:10:51;;;;;;;11.95;3.05;;;;;;;15.28;100.00;101694.25;5248961;28;20013;-83
2021/06/16 00:13:22;;;;;;;10.65;3.75;;;;;;;15.23;100.00;101688.53;5248403;28;20016;-83
2021/06/16 00:15:52;;;;;;;8.57;3.78;;;;;;;15.23;100.00;101687.69;5248316;28;20039;-83
2021/06/16 00:18:23;;;;;;;10.30;3.60;;;;;;;15.20;100.00;101688.03;5248683;28;20040;-83
2021/06/16 00:20:53;;;;;;;13.32;4.55;;;;;;;15.17;100.00;101688.41;5248509;28;20024;-83
2021/06/16 00:23:24;;;;;;;7.28;4.10;;;;;;;15.12;100.00;101686.22;5248489;28;20051;-83
2021/06/16 00:25:54;;;;;;;8.68;4.07;;;;;;;15.05;100.00;101679.81;5248617;28;20468;-83
2021/06/16 00:28:25;;;;;;;10.38;3.83;;;;;;;15.01;100.00;101679.34;5247830;28;20020;-83
2021/06/16 00:30:55;;;;;;;8.00;3.53;;;;;;;15.00;100.00;101671.41;5247983;28;20020;-83
2021/06/16 00:33:25;;;;;;;9.30;3.92;;;;;;;14.98;100.00;101670.75;5248155;28;20479;-83
2021/06/16 00:35:57;;;;;;;10.20;4.00;;;;;;;15.07;100.00;101677.81;5248649;28;20064;-83
2021/06/16 00:38:28;;;;;;;8.25;4.05;;;;;;;15.21;100.00;101673.50;5248353;28;20703;-83
2021/06/16 00:40:59;;;;;;;6.68;4.00;;;;;;;15.21;100.00;101668.97;5248530;28;20059;-83
2021/06/16 00:43:29;;;;;;;11.20;3.95;;;;;;;15.19;100.00;101673.69;5248350;28;20066;-83
2021/06/16 00:46:00;;;;;;;10.40;3.38;;;;;;;15.17;100.00;101670.31;5247903;28;20601;-83
2021/06/16 00:48:30;;;;;;;16.30;3.55;;;;;;;15.10;100.00;101676.59;5248546;28;20033;-83
2021/06/16 00:51:01;;;;;;;6.88;3.60;;;;;;;15.05;100.00;101668.19;5247933;28;20048;-83
2021/06/16 00:53:31;;;;;;;7.15;3.35;;;;;;;14.97;100.00;101660.97;5247772;28;20020;-83
2021/06/16 00:56:02;;;;;;;13.80;4.45;;;;;;;14.84;100.00;101661.50;5246870;28;20505;-81
2021/06/16 00:58:33;;;;;;;6.60;3.80;;;;;;;14.73;100.00;101659.19;5247782;28;20035;-81
2021/06/16 01:01:13;;;;;;;12.40;4.13;;;;;;;14.68;100.00;101664.25;5257150;28;20021;-82
2021/06/16 01:04:18;;;;;;;9.30;3.65;;;;;;;14.64;100.00;101655.66;5248962;28;20028;-82
2021/06/16 01:06:56;;;;;;;9.18;3.85;;;;;;;14.57;100.00;101665.47;5247100;28;20050;-81
2021/06/16 01:09:32;;;;;;;11.68;3.90;;;;;;;14.50;100.00;101664.47;5247254;28;20464;-81
2021/06/16 01:12:18;;;;;;;18.23;4.50;;;;;;;14.43;100.00;101663.44;5246724;28;20077;-81
2021/06/16 01:15:02;;;;;;;4.57;3.42;;;;;;;14.35;100.00;101661.59;5246607;28;20028;-82
2021/06/16 01:17:38;;;;;;;13.73;4.65;;;;;;;14.25;100.00;101650.13;5246029;28;20032;-81
2021/06/16 01:20:15;;;;;;;;;;;;;;;14.20;100.00;101660.59;5246169;28;20055;-81
2021/06/16 01:23:01;;;;;;;5.68;3.10;;;;;;;14.18;100.00;101654.53;5245876;28;19908;-82
2021/06/16 01:25:52;;;;;;;;;;;;;;;14.19;100.00;101659.75;5245792;28;20487;-82
2021/06/16 01:28:25;;;;;;;13.15;4.47;;;;;;;14.15;100.00;101657.56;5253201;28;19904;-81
2021/06/16 01:30:57;;;;;;;9.32;4.32;;;;;;;14.11;100.00;101656.25;5262720;28;20017;-82
2021/06/16 01:33:27;;;;;;;8.18;3.80;;;;;;;14.08;100.00;101656.56;5262063;28;20039;-81
2021/06/16 01:35:59;;;;;;;8.13;4.00;;;;;;;14.09;100.00;101660.94;5262558;28;20024;-82
2021/06/16 01:38:30;;;;;;;7.65;4.28;;;;;;;14.09;100.00;101651.00;5262403;28;20048;-82
2021/06/16 01:41:03;;;;;;;8.20;3.88;;;;;;;14.05;100.00;101652.34;5263803;28;20036;-81
2021/06/16 01:43:34;;;;;;;10.43;4.60;;;;;;;14.08;100.00;101654.72;5261631;28;20025;-82
2021/06/16 01:46:05;;;;;;;13.40;3.97;;;;;;;14.07;100.00;101647.66;5255517;28;20017;-82
2021/06/16 01:48:41;;;;;;;12.80;4.60;;;;;;;14.07;100.00;101644.94;5254978;28;20025;-82
2021/06/16 01:51:12;;;;;;;9.95;4.18;;;;;;;14.04;100.00;101641.72;5253732;28;20077;-81
2021/06/16 01:53:44;;;;;;;10.23;4.35;;;;;;;13.98;100.00;101637.88;5255747;28;20023;-81
2021/06/16 01:56:18;;;;;;;12.50;4.60;;;;;;;13.94;100.00;101634.66;5259863;28;20020;-82
2021/06/16 01:58:52;;;;;;;11.05;5.05;;;;;;;13.92;100.00;101633.16;5260043;28;20271;-81
2021/06/16 02:01:24;;;;;;;13.90;5.22;;;;;;;13.85;100.00;101632.13;5260299;28;20039;-81
2021/06/16 02:03:55;;;;;;;9.82;5.07;;;;;;;13.79;100.00;101628.25;5261487;28;20050;-82
2021/06/16 02:06:31;;;;;;;10.35;4.53;;;;;;;13.76;100.00;101630.47;5261530;28;20020;-81
2021/06/16 02:09:05;;;;;;;12.30;4.50;;;;;;;13.74;100.00;101627.91;5261061;28;20028;-81
2021/06/16 02:11:41;;;;;;;13.32;5.22;;;;;;;13.72;100.00;101627.25;5261805;28;20184;-82
2021/06/16 02:14:16;;;;;;;10.48;4.78;;;;;;;13.69;100.00;101622.19;5261082;28;20026;-82
2021/06/16 02:16:52;;;;;;;14.38;5.03;;;;;;;13.68;100.00;101620.50;5261694;28;20043;-82
2021/06/16 02:19:28;;;;;;;9.07;4.80;;;;;;;13.69;100.00;101620.31;5260931;28;20020;-82
2021/06/16 02:22:00;;;;;;;10.55;4.40;;;;;;;13.67;100.00;101616.97;5247610;28;20028;-81
2021/06/16 02:24:31;;;;;;;12.93;5.13;;;;;;;13.66;100.00;101611.75;5261612;28;20025;-82
2021/06/16 02:27:02;;;;;;;11.13;4.82;;;;;;;13.62;100.00;101615.78;5262307;28;20044;-81
2021/06/16 02:29:33;;;;;;;11.00;4.63;;;;;;;13.62;100.00;101611.22;5261517;28;20012;-82
2021/06/16 02:32:04;;;;;;;10.40;4.68;;;;;;;13.62;100.00;101607.69;5261670;28;20028;-81
2021/06/16 02:34:35;;;;;;;13.25;5.10;;;;;;;13.61;100.00;101598.75;5247111;28;20020;-81
2021/06/16 02:37:10;;;;;;;19.20;4.78;;;;;;;13.59;100.00;101592.69;5247678;28;20028;-81
2021/06/16 02:39:48;;;;;;;8.63;4.32;;;;;;;13.57;100.00;101596.56;5246814;28;20212;-82
2021/06/16 02:42:19;;;;;;;9.75;4.60;;;;;;;13.55;100.00;101598.56;5246350;28;20024;-82
2021/06/16 02:44:51;;;;;;;7.20;4.20;;;;;;;13.53;100.00;101590.66;5246249;28;20016;-81
2021/06/16 02:47:22;;;;;;;13.68;4.90;;;;;;;13.52;100.00;101588.16;5245716;28;20471;-82
2021/06/16 02:49:55;;;;;;;14.20;5.20;;;;;;;13.49;100.00;101589.31;5244887;28;20086;-82
2021/06/16 02:52:28;;;;;;;14.98;5.20;;;;;;;13.45;100.00;101588.81;5235913;28;20035;-81
2021/06/16 02:55:05;;;;;;;14.18;5.13;;;;;;;13.39;100.00;101584.06;5245692;28;20070;-82
2021/06/16 02:57:38;;;;;;;17.85;6.50;;;;;;;13.36;100.00;101579.03;5245404;28;20024;-81
2021/06/16 03:00:12;;;;;;;15.50;5.65;;;;;;;13.30;100.00;101576.97;5244748;28;20025;-81
2021/06/16 03:02:45;;;;;;;15.25;6.05;;;;;;;13.27;100.00;101577.34;5244524;28;20452;-81
2021/06/16 03:05:25;;;;;;;12.85;5.63;;;;;;;13.23;100.00;101575.13;5246220;28;20017;-82
2021/06/16 03:07:58;;;;;;;11.25;5.25;;;;;;;13.19;100.00;101578.13;5246873;28;20016;-81
2021/06/16 03:10:32;;;;;;;15.80;5.45;;;;;;;13.15;100.00;101578.59;5233685;28;20052;-81
2021/06/16 03:13:04;;;;;;;13.52;5.82;;;;;;;13.09;100.00;101561.25;5228911;28;20476;-81
2021/06/16 03:15:35;;;;;;;18.38;6.18;;;;;;;13.09;100.00;101572.03;5246445;28;20023;-81
2021/06/16 03:18:08;;;;;;;13.98;5.72;;;;;;;13.07;100.00;101565.97;5246762;28;20028;-81
2021/06/16 03:20:40;;;;;;;13.93;5.75;;;;;;;13.06;100.00;101568.84;5246414;28;20454;-81
2021/06/16 03:23:11;;;;;;;11.18;6.15;;;;;;;13.02;100.00;101560.25;5246108;28;20485;-81
2021/06/16 03:25:43;;;;;;;16.65;5.65;;;;;;;13.03;100.00;101561.09;5245843;28;20110;-82
2021/06/16 03:28:15;;;;;;;12.75;5.03;;;;;;;13.02;100.00;101562.94;5245599;28;20510;-81
2021/06/16 03:30:45;;;;;;;10.15;5.15;;;;;;;13.03;100.00;101563.78;5228052;28;20039;-81
2021/06/16 03:33:17;;;;;;;11.75;5.55;;;;;;;13.02;100.00;101564.78;5227584;28;20020;-81
2021/06/16 03:35:48;;;;;;;13.27;5.22;;;;;;;13.01;100.00;101561.25;5245322;28;20024;-81
2021/06/16 03:38:19;;;;;;;15.68;6.10;;;;;;;13.04;100.00;101560.91;5244980;28;20074;-82
2021/06/16 03:40:53;;;;;;;12.98;6.32;;;;;;;13.14;100.00;101558.91;5244167;28;20115;-81
2021/06/16 03:43:24;;;;;;;12.38;5.53;;;;;;;13.20;100.00;101562.78;5244671;28;20025;-82
2021/06/16 03:45:55;;;;;;;16.70;6.10;;;;;;;13.22;100.00;101560.81;5244417;28;20036;-82
2021/06/16 03:48:27;;;;;;;15.35;5.72;;;;;;;13.25;100.00;101565.03;5244287;28;20031;-82
2021/06/16 03:50:58;;;;;;;12.82;5.72;;;;;;;13.29;100.00;101552.91;5243637;28;20036;-81
2021/06/16 03:53:29;;;;;;;13.85;6.05;;;;;;;13.30;100.00;101557.28;5243483;28;20024;-82
2021/06/16 03:56:00;;;;;;;12.20;5.88;;;;;;;13.31;100.00;101554.44;5243446;28;20035;-82
2021/06/16 03:58:31;;;;;;;17.67;6.43;;;;;;;13.36;100.00;101553.94;5242806;28;20365;-82
2021/06/16 04:01:01;;;;;;;17.70;6.68;;;;;;;13.42;100.00;101547.88;5243939;28;20325;-82
2021/06/16 04:03:32;;;;;;;16.58;6.35;;;;;;;13.46;100.00;101546.53;5234420;28;20101;-82
2021/06/16 04:06:05;;;;;;;14.65;5.75;;;;;;;13.54;100.00;101545.69;5243598;28;20028;-82
2021/06/16 04:08:36;;;;;;;11.80;4.65;;;;;;;13.60;100.00;101545.00;5242497;28;20021;-82
2021/06/16 04:11:07;;;;;;;13.82;5.32;;;;;;;13.63;100.00;101539.28;5239756;28;20029;-81
2021/06/16 04:13:37;;;;;;;13.48;5.20;;;;;;;13.64;100.00;101536.41;5239880;28;20035;-82
2021/06/16 04:16:09;;;;;;;13.52;5.30;;;;;;;13.68;100.00;101532.34;5239192;28;20074;-82
2021/06/16 04:18:41;;;;;;;13.18;5.85;;;;;;;13.74;100.00;101536.22;5240878;28;20106;-81
2021/06/16 04:21:11;;;;;;;16.33;4.93;;;;;;;13.77;100.00;101530.50;5255594;28;20027;-82
2021/06/16 04:23:41;;;;;;;16.75;6.78;;;;;;;13.83;100.00;101529.81;5264436;28;20478;-82
2021/06/16 04:26:12;;;;;;;17.50;5.95;;;;;;;13.87;100.00;101527.63;5249759;28;20028;-82
2021/06/16 04:28:43;;;;;;;20.70;6.97;;;;;;;13.88;100.00;101521.22;5250936;28;20060;-82
2021/06/16 04:31:13;;;;;;;21.35;5.97;;;;;;;13.92;100.00;101534.19;5260690;28;20020;-82
2021/06/16 04:33:44;;;;;;;23.77;5.80;;;;;;;13.97;100.00;101528.28;5244449;28;20037;-82
2021/06/16 04:36:14;;;;;;;14.60;5.70;;;;;;;14.03;100.00;101522.19;5257621;28;20029;-82
2021/06/16 04:38:45;;;;;;;18.17;6.75;;;;;;;14.14;100.00;101524.50;5255851;28;20043;-82
2021/06/16 04:41:15;;;;;;;20.33;6.55;;;;;;;14.28;100.00;101524.81;5245414;28;20036;-82
2021/06/16 04:43:46;;;;;;;17.00;6.35;;;;;;;14.40;100.00;101523.41;5244841;28;20051;-82
2021/06/16 04:46:16;;;;;;;18.08;6.65;;;;;;;14.53;100.00;101518.34;5276801;28;20017;-81
2021/06/16 04:48:47;;;;;;;15.95;5.55;;;;;;;14.68;100.00;101526.53;5263699;28;20021;-82
2021/06/16 04:51:17;;;;;;;15.00;6.55;;;;;;;14.85;100.00;101516.47;5260010;28;20029;-81
2021/06/16 04:53:48;;;;;;;19.63;8.55;;;;;;;15.03;100.00;101514.34;5260557;28;20043;-82
2021/06/16 04:56:18;;;;;;;21.90;6.40;;;;;;;15.18;100.00;101517.94;5264325;28;20032;-82
2021/06/16 04:58:49;;;;;;;25.17;9.65;;;;;;;15.48;100.00;101504.53;5264587;28;20020;-83
2021/06/16 05:01:19;;;;;;;16.90;7.25;;;;;;;15.67;100.00;101511.34;5264597;28;20028;-83
2021/06/16 05:03:50;;;;;;;20.80;8.43;;;;;;;15.85;100.00;101508.25;5264996;28;20383;-83
2021/06/16 05:06:20;;;;;;;16.90;7.85;;;;;;;16.04;100.00;101502.31;5263397;28;20027;-83
2021/06/16 05:08:51;;;;;;;14.75;6.88;;;;;;;16.23;100.00;101506.34;5264128;28;20023;-83
2021/06/16 05:11:21;;;;;;;13.15;6.60;;;;;;;16.39;100.00;101505.28;5262411;28;20048;-83
2021/06/16 05:13:52;;;;;;;14.75;6.65;;;;;;;16.64;100.00;101506.66;5263882;28;20080;-83
2021/06/16 05:16:22;;;;;;;23.92;7.43;;;;;;;16.78;100.00;101500.38;5264303;28;20027;-83
2021/06/16 05:18:53;;;;;;;14.18;6.28;;;;;;;17.05;100.00;101506.94;5256960;28;20104;-83
2021/06/16 05:21:23;;;;;;;15.55;6.63;;;;;;;17.48;100.00;101508.81;5259237;28;20032;-83
2021/06/16 05:23:54;;;;;;;10.20;5.63;;;;;;;18.38;100.00;101502.53;5254839;28;20040;-83
2021/06/16 05:26:24;;;;;;;12.75;5.43;;;;;;;19.60;100.00;101507.88;5246103;28;20025;-83
2021/06/16 05:28:55;;;;;;;13.30;4.63;;;;;;;20.85;100.00;101505.06;5247015;28;20027;-83
2021/06/16 05:31:25;;;;;;;15.07;5.18;;;;;;;21.42;100.00;101511.41;5233449;28;20074;-83
2021/06/16 05:33:55;;;;;;;10.98;4.78;;;;;;;22.10;100.00;101503.22;5247092;28;20027;-83
2021/06/16 05:39:00;;;;;;;14.65;4.68;;;;;;;23.25;88.07;101510.63;5218082;28;20048;-67
2021/06/16 05:41:30;;;;;;;13.35;4.78;;;;;;;23.76;79.36;101506.44;5219845;28;20072;-68
2021/06/16 05:44:01;;;;;;;15.85;4.95;;;;;;;24.27;69.95;101504.81;5221592;28;20104;-68
2021/06/16 05:46:32;;;;;;;11.38;4.07;;;;;;;25.05;68.36;101500.63;5221544;28;20020;-68
2021/06/16 05:49:02;;;;;;;17.88;4.57;;;;;;;25.28;67.12;101500.53;5222739;28;20159;-68
2021/06/16 05:51:33;;;;;;;15.00;4.63;;;;;;;26.06;55.96;101492.44;5220959;28;20024;-68
2021/06/16 05:54:09;;;;;;;10.05;4.43;;;;;;;25.50;60.31;101492.41;5223034;28;20357;-68
2021/06/16 05:56:41;;;;;;;13.80;5.63;;;;;;;25.92;57.44;101488.38;5221502;28;20050;-68
2021/06/16 05:59:12;;;;;;;11.13;4.35;;;;;;;26.09;58.38;101489.16;5221799;28;20033;-68
2021/06/16 06:01:43;;;;;;;12.60;4.10;;;;;;;25.88;56.23;101484.47;5223947;28;20032;-68
2021/06/16 06:04:13;;;;;;;15.88;4.32;;;;;;;26.33;56.20;101476.00;5220783;28;20017;-68
2021/06/16 06:06:44;;;;;;;12.30;4.22;;;;;;;26.32;57.36;101474.34;5221605;28;20477;-68
2021/06/16 06:09:14;;;;;;;11.45;4.60;;;;;;;26.43;54.98;101476.16;5216959;28;20082;-68
2021/06/16 06:11:44;;;;;;;14.88;4.20;;;;;;;25.91;56.57;101475.72;5222136;28;20021;-68
2021/06/16 06:14:15;;;;;;;12.70;4.57;;;;;;;26.62;54.33;101473.06;5222943;28;20021;-68
2021/06/16 06:16:45;;;;;;;10.23;4.25;;;;;;;27.24;50.82;101475.38;5220741;28;20029;-68
2021/06/16 06:19:16;;;;;;;10.98;4.28;;;;;;;26.84;51.93;101477.44;5219310;28;20033;-67
2021/06/16 06:21:46;;;;;;;13.15;4.05;;;;;;;27.45;50.05;101479.09;5220256;28;20032;-67
2021/06/16 06:24:17;;;;;;;12.25;4.45;;;;;;;27.41;50.29;101469.72;5220051;28;20428;-68
2021/06/16 06:26:47;;;;;;;13.50;4.60;;;;;;;27.18;52.65;101466.22;5231620;28;20054;-67
2021/06/16 06:29:18;;;;;;;11.75;4.25;;;;;;;26.97;53.25;101459.69;5219533;28;20307;-67
2021/06/16 06:31:48;;;;;;;8.27;4.20;;;;;;;27.10;53.94;101456.50;5219606;28;20025;-68
2021/06/16 06:34:19;;;;;;;13.68;4.00;;;;;;;27.76;50.34;101449.88;5216947;28;20031;-68
2021/06/16 06:36:49;;;;;;;10.77;3.95;;;;;;;27.76;49.47;101449.88;5221436;28;20448;-68
2021/06/16 06:39:20;;;;;;;9.93;4.05;;;;;;;27.28;50.07;101447.03;5219830;28;20052;-68
2021/06/16 06:41:50;;;;;;;12.25;4.10;;;;;;;27.09;54.86;101443.84;5237459;28;20162;-67
2021/06/16 06:44:21;;;;;;;12.10;4.70;;;;;;;26.69;53.33;101440.66;5222597;28;20039;-67
2021/06/16 06:46:51;;;;;;;9.43;4.00;;;;;;;26.96;54.88;101437.91;5231520;28;20017;-67
2021/06/16 06:49:22;;;;;;;15.52;4.95;;;;;;;26.48;59.24;101442.38;5219490;28;20048;-70
2021/06/16 06:51:52;;;;;;;13.18;4.75;;;;;;;26.09;56.77;101431.41;5219483;28;20492;-70
2021/06/16 06:54:23;;;;;;;9.93;4.03;;;;;;;25.68;60.20;101430.84;5232794;28;20492;-71
2021/06/16 06:56:53;;;;;;;14.40;4.15;;;;;;;25.58;63.64;101420.53;5225508;28;20029;-66
2021/06/16 06:59:24;;;;;;;14.27;4.68;;;;;;;25.16;67.97;101424.81;5232267;28;20023;-66
2021/06/16 07:01:54;;;;;;;14.65;4.57;;;;;;;25.07;73.64;101418.09;5229003;28;20099;-66
2021/06/16 07:04:26;;;;;;;12.38;4.07;;;;;;;24.54;79.35;101417.38;5220715;28;20094;-66
2021/06/16 07:06:56;;;;;;;14.85;4.20;;;;;;;24.62;75.56;101414.25;5219356;28;20117;-66
2021/06/16 07:09:27;;;;;;;13.23;5.18;;;;;;;24.61;84.47;101414.50;5226349;28;20101;-66
2021/06/16 07:11:57;;;;;;;10.73;4.88;;;;;;;24.55;73.43;101416.31;5239557;28;20459;-66
2021/06/16 07:14:28;;;;;;;15.02;4.65;;;;;;;24.52;79.50;101414.06;5220775;28;20176;-66
2021/06/16 07:16:58;;;;;;;15.88;4.50;;;;;;;24.49;88.08;101417.28;5219532;28;20025;-66
2021/06/16 07:19:28;;;;;;;8.05;4.03;;;;;;;24.69;83.53;101412.16;5225117;28;20103;-66
2021/06/16 07:21:59;;;;;;;8.90;3.97;;;;;;;24.48;80.18;101416.44;5226016;28;20436;-66
2021/06/16 07:24:30;;;;;;;16.10;4.68;;;;;;;24.40;79.01;101418.72;5232408;28;20032;-66
2021/06/16 07:27:01;;;;;;;10.60;4.22;;;;;;;24.65;78.48;101418.38;5232839;28;20165;-66
2021/06/16 07:29:31;;;;;;;12.52;4.40;;;;;;;24.66;80.90;101417.34;5219188;28;20033;-66
2021/06/16 07:32:02;;;;;;;13.60;4.38;;;;;;;24.91;79.08;101414.22;5232459;28;20471;-66
2021/06/16 07:34:33;;;;;;;9.45;4.25;;;;;;;25.00;78.86;101413.56;5230029;28;20404;-66
2021/06/16 07:37:04;;;;;;;9.45;4.45;;;;;;;24.83;81.55;101412.69;5223084;28;20325;-66
2021/06/16 07:39:34;;;;;;;17.75;4.63;;;;;;;25.01;85.80;101415.22;5223171;28;20534;-66
2021/06/16 07:42:05;;;;;;;10.48;4.80;;;;;;;25.20;82.20;101401.25;5243872;28;20025;-66
2021/06/16 07:44:35;;;;;;;8.23;4.32;;;;;;;25.25;76.95;101404.94;5228622;28;20466;-66
2021/06/16 07:47:06;;;;;;;18.58;5.18;;;;;;;25.46;73.31;101397.84;5236652;28;20448;-66
2021/06/16 07:49:36;;;;;;;10.57;4.97;;;;;;;25.09;77.32;101408.50;5220578;28;20026;-66
2021/06/16 07:52:07;;;;;;;12.27;4.60;;;;;;;25.12;79.99;101404.44;5207791;28;20025;-66
2021/06/16 07:54:38;;;;;;;7.43;4.75;;;;;;;24.96;82.50;101397.84;5214559;28;20056;-66
2021/06/16 07:57:08;;;;;;;6.85;4.60;;;;;;;25.39;85.96;101391.69;5221661;28;20435;-66
2021/06/16 07:59:39;;;;;;;16.40;5.70;;;;;;;25.39;79.58;101394.41;5241330;28;20411;-66
2021/06/16 08:02:10;;;;;;;11.00;4.78;;;;;;;25.66;78.42;101394.56;5229843;28;20025;-66
2021/06/16 08:04:41;;;;;;;8.75;4.55;;;;;;;25.88;85.76;101385.53;5221648;28;20031;-66
2021/06/16 08:07:12;;;;;;;14.13;5.90;;;;;;;26.04;76.94;101390.94;5217805;28;20048;-66
2021/06/16 08:09:43;;;;;;;12.10;5.53;;;;;;;26.41;81.92;101384.78;5223351;28;20021;-66
2021/06/16 08:12:16;;;;;;;10.68;5.75;;;;;;;26.48;71.94;101385.44;5228726;28;20032;-66
2021/06/16 08:14:47;;;;;;;14.77;5.97;;;;;;;26.35;71.86;101383.03;5241388;28;20071;-65
2021/06/16 08:17:17;;;;;;;10.35;5.80;;;;;;;26.51;69.01;101373.09;5225168;28;20457;-66
2021/06/16 08:19:48;;;;;;;10.38;5.40;;;;;;;26.53;79.45;101379.97;5220138;28;20504;-66
2021/06/16 08:22:19;;;;;;;10.48;6.13;;;;;;;26.67;78.06;101372.16;5219836;28;20273;-66
2021/06/16 08:24:49;;;;;;;10.25;5.90;;;;;;;26.62;75.71;101374.84;5221401;28;20013;-66
2021/06/16 08:27:20;;;;;;;11.88;5.28;;;;;;;26.85;73.42;101368.97;5220609;28;20075;-66
2021/06/16 08:29:50;;;;;;;13.65;6.28;;;;;;;26.48;72.47;101368.94;5220601;28;20025;-66
2021/06/16 08:32:21;;;;;;;12.55;5.72;;;;;;;26.33;78.51;101366.81;5226153;28;20020;-66
2021/06/16 08:34:51;;;;;;;16.23;5.55;;;;;;;26.74;70.12;101366.41;5227267;28;20139;-66
2021/06/16 08:37:22;;;;;;;13.93;6.25;;;;;;;26.84;74.36;101361.00;5220267;28;20032;-66
2021/06/16 08:39:52;;;;;;;9.02;5.47;;;;;;;26.94;82.42;101363.00;5232964;28;20020;-65
2021/06/16 08:42:28;;;;;;;9.50;5.47;;;;;;;27.24;77.63;101355.00;5229339;28;20082;-67
2021/06/16 08:44:58;;;;;;;11.68;6.35;;;;;;;27.39;70.04;101358.94;5221343;28;20020;-66
2021/06/16 08:47:30;;;;;;;12.48;6.68;;;;;;;27.27;72.85;101348.16;5220334;28;20501;-66
2021/06/16 08:50:07;;;;;;;9.43;5.95;;;;;;;27.29;75.29;101352.28;5218443;28;20031;-66
2021/06/16 08:52:38;;;;;;;12.98;5.75;;;;;;;27.14;76.68;101357.69;5219412;28;20040;-66
2021/06/16 08:55:15;;;;;;;9.02;5.70;;;;;;;27.69;68.94;101345.34;5227179;28;20028;-66
2021/06/16 08:57:46;;;;;;;14.13;6.05;;;;;;;27.12;74.03;101351.63;5225088;28;20025;-66
2021/06/16 09:00:20;;;;;;;10.27;6.30;;;;;;;27.53;66.16;101360.16;5220159;28;20017;-67
2021/06/16 09:02:51;;;;;;;10.82;5.80;;;;;;;27.90;66.62;101348.22;5235840;28;20020;-68
2021/06/16 09:05:36;;;;;;;11.07;6.22;;;;;;;28.08;61.77;101337.53;5230228;28;20062;-68
2021/06/16 09:08:20;;;;;;;15.65;6.13;;;;;;;28.27;65.57;101335.09;5219307;28;20032;-68
2021/06/16 09:10:56;;;;;;;14.67;6.13;;;;;;;28.04;70.38;101346.63;5228115;28;20036;-67
2021/06/16 09:13:32;;;;;;;13.73;5.70;;;;;;;28.03;72.07;101343.03;5228280;28;20415;-68
2021/06/16 09:16:30;;;;;;;13.35;7.22;;;;;;;27.73;67.28;101337.41;5219736;28;20033;-68
2021/06/16 09:19:00;;;;;;;9.95;5.45;;;;;;;28.05;66.94;101338.06;5219170;28;20025;-67
2021/06/16 09:21:34;;;;;;;14.15;6.15;;;;;;;28.13;66.44;101342.22;5218661;28;20024;-68
2021/06/16 09:24:06;;;;;;;12.43;6.37;;;;;;;28.37;60.58;101337.09;5219434;28;20029;-68
2021/06/16 09:26:42;;;;;;;13.98;6.60;;;;;;;28.42;61.76;101331.56;5218809;28;20358;-68
2021/06/16 09:29:12;;;;;;;15.27;6.32;;;;;;;28.43;64.45;101335.97;5219172;28;20087;-68
2021/06/16 09:31:44;;;;;;;13.73;6.18;;;;;;;28.56;63.37;101331.84;5219117;28;20025;-68
2021/06/16 09:34:17;;;;;;;10.98;5.43;;;;;;;28.94;68.71;101333.25;5226957;28;20033;-68
2021/06/16 09:36:54;;;;;;;15.35;6.80;;;;;;;29.31;63.05;101332.09;5218713;28;20028;-68
2021/06/16 09:39:28;;;;;;;15.38;6.70;;;;;;;29.28;57.47;101327.13;5218857;28;20473;-68
2021/06/16 09:42:01;;;;;;;12.23;6.38;;;;;;;29.25;57.63;101323.00;5241220;28;20314;-68
2021/06/16 09:44:50;;;;;;;12.43;6.53;;;;;;;29.33;59.59;101321.59;5233825;28;20024;-68
2021/06/16 09:47:23;;;;;;;16.35;6.93;;;;;;;29.28;58.33;101321.63;5243040;28;20088;-67
2021/06/16 09:50:00;;;;;;;10.38;5.55;;;;;;;29.53;61.12;101316.00;5230585;28;20024;-67
2021/06/16 09:52:38;;;;;;;12.35;6.13;;;;;;;29.77;59.92;101313.47;5218839;28;20016;-68
2021/06/16 09:55:21;;;;;;;17.75;6.00;;;;;;;30.03;63.06;101316.09;5219556;28;20044;-68
2021/06/16 09:57:58;;;;;;;13.07;6.10;;;;;;;30.41;55.52;101307.00;5223612;28;20124;-68
2021/06/16 10:00:34;;;;;;;16.00;6.40;;;;;;;29.34;57.19;101307.50;5218400;28;20040;-68
2021/06/16 10:03:16;;;;;;;11.85;6.20;;;;;;;29.25;57.40;101308.34;5223740;28;20535;-67
2021/06/16 10:06:08;;;;;;;17.25;6.55;;;;;;;29.79;52.98;101313.16;5219058;28;20040;-68
2021/06/16 10:08:42;;;;;;;11.80;5.95;;;;;;;29.72;57.33;101315.38;5224113;28;20407;-67
2021/06/16 10:11:17;;;;;;;8.13;6.10;;;;;;;29.76;58.38;101314.53;5218943;28;20032;-68
2021/06/16 10:13:48;;;;;;;13.57;6.45;;;;;;;29.75;57.48;101317.59;5219963;28;20386;-68
2021/06/16 10:16:18;;;;;;;10.18;6.22;;;;;;;29.87;59.13;101323.63;5219970;28;20047;-68
2021/06/16 10:18:51;;;;;;;12.40;6.90;;;;;;;29.80;58.08;101317.59;5218470;28;20641;-68
2021/06/16 10:21:22;;;;;;;12.60;6.35;;;;;;;30.17;56.66;101315.22;5218722;28;20028;-68
2021/06/16 10:23:53;;;;;;;10.90;6.68;;;;;;;30.43;53.15;101315.03;5218925;28;20025;-67
2021/06/16 10:26:31;;;;;;;9.90;6.07;;;;;;;30.61;54.23;101311.53;5218575;28;20536;-69
2021/06/16 10:29:11;;;;;;;8.13;5.80;;;;;;;30.62;52.29;101313.19;5218150;28;20025;-68
2021/06/16 10:31:41;;;;;;;13.77;6.55;;;;;;;30.44;52.85;101305.59;5215529;28;20423;-68
2021/06/16 10:34:12;;;;;;;15.48;5.63;;;;;;;30.42;56.75;101314.22;5223059;28;20028;-67
2021/06/16 10:37:04;;;;;;;14.45;6.03;;;;;;;30.72;55.92;101311.50;5218569;28;20025;-68
2021/06/16 10:39:34;;;;;;;12.02;6.85;;;;;;;30.66;56.73;101311.50;5217503;28;20472;-68
2021/06/16 10:42:05;;;;;;;17.85;7.63;;;;;;;31.14;50.37;101308.06;5218057;28;20021;-68
2021/06/16 10:44:35;;;;;;;16.10;7.78;;;;;;;31.02;54.90;101307.59;5218149;28;20405;-69
2021/06/16 10:47:06;;;;;;;10.40;6.65;;;;;;;30.86;55.32;101302.22;5218299;28;20024;-68
2021/06/16 10:49:40;;;;;;;16.27;6.85;;;;;;;30.73;56.04;101302.09;5222300;28;20025;-68
2021/06/16 10:52:12;;;;;;;11.60;6.57;;;;;;;31.18;49.49;101307.19;5221518;28;20331;-68
2021/06/16 10:54:57;;;;;;;12.30;7.15;;;;;;;31.03;51.88;101307.34;5218125;28;20024;-68
2021/06/16 10:57:29;;;;;;;10.20;5.78;;;;;;;31.09;56.02;101300.63;5217961;28;20032;-68
2021/06/16 11:00:01;;;;;;;10.52;6.25;;;;;;;31.06;56.90;101295.66;5222156;28;20400;-68
2021/06/16 11:02:32;;;;;;;10.52;6.28;;;;;;;31.22;57.58;101293.53;5217068;28;20036;-68
2021/06/16 11:05:28;;;;;;;13.93;6.20;;;;;;;31.17;54.81;101290.81;5229071;28;20056;-68
2021/06/16 11:08:03;;;;;;;10.13;6.30;;;;;;;31.43;59.39;101294.19;5217846;28;20102;-68
2021/06/16 11:10:53;;;;;;;15.43;6.00;;;;;;;31.78;55.50;101275.41;5216952;28;20123;-68
2021/06/16 11:13:38;;;;;;;12.60;6.80;;;;;;;31.62;54.41;101278.38;5226309;28;20013;-68
2021/06/16 11:16:46;;;;;;;12.80;6.20;;;;;;;31.42;50.44;101286.97;5225660;28;20119;-68
2021/06/16 11:19:21;;;;;;;14.90;5.85;;;;;;;31.29;51.81;101288.50;5223804;28;20099;-68
2021/06/16 11:21:54;;;;;;;9.13;5.45;;;;;;;31.70;49.36;101269.41;5227128;28;20024;-68
2021/06/16 11:25:02;;;;;;;14.15;6.45;;;;;;;31.71;53.45;101278.56;5227645;28;20139;-69
2021/06/16 11:28:01;;;;;;;14.82;6.13;;;;;;;31.82;49.62;101280.09;5215217;28;20075;-71
2021/06/16 11:30:51;;;;;;;9.85;5.88;;;;;;;31.73;51.92;101273.56;5230629;28;20020;-70
2021/06/16 11:33:21;;;;;;;8.07;5.45;;;;;;;31.48;49.95;101274.72;5220747;28;20074;-67
2021/06/16 11:35:52;;;;;;;8.77;5.55;;;;;;;31.64;50.59;101262.28;5207616;28;20029;-67
2021/06/16 11:38:29;;;;;;;9.25;5.65;;;;;;;31.80;50.98;101270.41;5218786;28;20084;-67
2021/06/16 11:41:16;;;;;;;9.27;5.20;;;;;;;31.91;50.44;101256.13;5225753;28;20039;-67
2021/06/16 11:43:58;;;;;;;12.15;6.40;;;;;;;31.95;50.96;101251.63;5219925;28;20485;-67